createdAt,value
2022-12-15T00:02:15.548Z,4.60
2022-12-15T00:05:00.836Z,4.60
2022-12-15T00:07:45.839Z,4.60
2022-12-15T00:10:31.494Z,4.60
2022-12-15T00:13:16.710Z,4.60
2022-12-15T00:16:04.058Z,4.70
2022-12-15T00:18:49.427Z,4.70
2022-12-15T00:21:34.630Z,4.70
2022-12-15T00:24:19.935Z,4.70
2022-12-15T00:27:05.451Z,4.70
2022-12-15T00:29:50.615Z,4.70
2022-12-15T00:32:35.964Z,4.80
2022-12-15T00:35:21.267Z,4.70
2022-12-15T00:38:06.298Z,4.70
2022-12-15T00:40:33.254Z,4.70
2022-12-15T00:42:59.905Z,4.70
2022-12-15T00:45:46.453Z,4.70
2022-12-15T00:48:13.137Z,4.70
2022-12-15T00:50:52.129Z,4.60
2022-12-15T00:53:41.637Z,4.60
2022-12-15T00:56:27.499Z,4.60
2022-12-15T00:59:14.022Z,4.60
2022-12-15T01:01:59.631Z,4.60
2022-12-15T01:04:45.231Z,4.60
2022-12-15T01:07:30.889Z,4.60
2022-12-15T01:10:16.189Z,4.50
2022-12-15T01:13:01.507Z,4.40
2022-12-15T01:15:46.862Z,4.50
2022-12-15T01:18:32.264Z,4.40
2022-12-15T01:21:01.275Z,4.40
2022-12-15T01:23:28.580Z,4.40
2022-12-15T01:25:55.791Z,4.40
2022-12-15T01:28:23.157Z,4.40
2022-12-15T01:30:49.929Z,4.40
2022-12-15T01:33:17.281Z,4.50
2022-12-15T01:35:44.023Z,4.50
2022-12-15T01:38:10.797Z,4.40
2022-12-15T01:40:46.598Z,4.40
2022-12-15T01:43:16.367Z,4.40
2022-12-15T01:45:51.954Z,4.30
2022-12-15T01:48:26.971Z,4.30
2022-12-15T01:51:04.968Z,4.20
2022-12-15T01:53:38.641Z,4.20
2022-12-15T01:56:07.578Z,4.20
2022-12-15T01:58:36.242Z,4.20
2022-12-15T02:01:03.894Z,4.30
2022-12-15T02:03:32.248Z,4.30
2022-12-15T02:06:01.126Z,4.20
2022-12-15T02:08:28.861Z,4.30
2022-12-15T02:11:31.666Z,4.30
2022-12-15T02:14:04.509Z,4.20
2022-12-15T02:16:33.949Z,4.20
2022-12-15T02:19:29.225Z,4.20
2022-12-15T02:22:14.731Z,4.20
2022-12-15T02:25:11.525Z,4.20
2022-12-15T02:28:01.181Z,4.20
2022-12-15T02:30:27.706Z,4.20
2022-12-15T02:33:32.937Z,4.10
2022-12-15T02:36:08.564Z,4.10
2022-12-15T02:38:41.410Z,4.00
2022-12-15T02:41:31.057Z,4.00
2022-12-15T02:43:57.707Z,4.00
2022-12-15T02:46:40.966Z,4.10
2022-12-15T02:49:19.672Z,4.10
2022-12-15T02:52:08.947Z,4.10
2022-12-15T02:55:03.649Z,4.10
2022-12-15T02:57:54.699Z,4.10
2022-12-15T03:00:22.691Z,4.20
2022-12-15T03:02:52.820Z,4.10
2022-12-15T03:05:21.475Z,4.20
2022-12-15T03:07:53.137Z,4.20
2022-12-15T03:10:23.435Z,4.10
2022-12-15T03:12:50.294Z,4.00
2022-12-15T03:15:18.277Z,4.00
2022-12-15T03:17:44.880Z,4.00
2022-12-15T03:20:12.015Z,4.00
2022-12-15T03:22:39.034Z,4.00
2022-12-15T03:25:06.230Z,3.90
2022-12-15T03:27:32.824Z,3.90
2022-12-15T03:29:59.473Z,3.90
2022-12-15T03:32:26.141Z,3.90
2022-12-15T03:34:52.700Z,3.90
2022-12-15T03:37:19.326Z,3.90
2022-12-15T03:39:45.921Z,3.90
2022-12-15T03:42:12.662Z,4.00
2022-12-15T03:44:39.377Z,3.90
2022-12-15T03:47:05.967Z,4.00
2022-12-15T03:49:32.509Z,3.90
2022-12-15T03:51:59.064Z,4.00
2022-12-15T03:54:25.688Z,4.00
2022-12-15T03:56:52.273Z,4.00
2022-12-15T03:59:19.354Z,4.10
2022-12-15T04:01:48.130Z,4.00
2022-12-15T04:04:15.131Z,4.00
2022-12-15T04:06:41.732Z,4.00
2022-12-15T04:09:08.331Z,4.00
2022-12-15T04:11:34.955Z,4.00
2022-12-15T04:14:01.515Z,4.00
2022-12-15T04:16:28.136Z,4.00
2022-12-15T04:19:14.773Z,4.00
2022-12-15T04:21:41.343Z,4.00
2022-12-15T04:24:26.533Z,4.10
2022-12-15T04:27:12.043Z,4.10
2022-12-15T04:29:56.971Z,4.00
2022-12-15T04:32:42.376Z,3.90
2022-12-15T04:35:29.212Z,3.90
2022-12-15T04:38:14.614Z,3.80
2022-12-15T04:41:00.164Z,3.80
2022-12-15T04:43:45.520Z,3.80
2022-12-15T04:46:30.976Z,3.80
2022-12-15T04:49:16.223Z,3.90
2022-12-15T04:52:01.593Z,3.70
2022-12-15T04:54:46.821Z,3.70
2022-12-15T04:57:32.163Z,3.70
2022-12-15T05:00:17.545Z,3.70
2022-12-15T05:03:02.812Z,3.60
2022-12-15T05:05:48.007Z,3.60
2022-12-15T05:08:33.340Z,3.60
2022-12-15T05:11:19.240Z,3.70
2022-12-15T05:14:04.582Z,3.70
2022-12-15T05:16:49.659Z,3.70
2022-12-15T05:19:34.923Z,3.60
2022-12-15T05:22:20.283Z,3.60
2022-12-15T05:25:05.501Z,3.50
2022-12-15T05:27:50.989Z,3.60
2022-12-15T05:30:36.160Z,3.60
2022-12-15T05:33:06.096Z,3.50
2022-12-15T05:35:32.775Z,3.50
2022-12-15T05:37:59.408Z,3.50
2022-12-15T05:40:26.110Z,3.50
2022-12-15T05:42:53.058Z,3.50
2022-12-15T05:45:21.040Z,3.50
2022-12-15T05:47:51.658Z,3.40
2022-12-15T05:50:18.926Z,3.40
2022-12-15T05:52:49.367Z,3.40
2022-12-15T05:55:17.285Z,3.30
2022-12-15T05:57:43.928Z,3.40
2022-12-15T06:00:10.882Z,3.30
2022-12-15T06:02:37.527Z,3.30
2022-12-15T06:05:04.542Z,3.30
2022-12-15T06:07:31.468Z,3.30
2022-12-15T06:09:58.064Z,3.30
2022-12-15T06:12:24.658Z,3.30
2022-12-15T06:14:51.317Z,3.30
2022-12-15T06:17:18.077Z,3.40
2022-12-15T06:19:44.974Z,3.40
2022-12-15T06:22:11.575Z,3.40
2022-12-15T06:24:38.443Z,3.40
2022-12-15T06:27:05.186Z,3.40
2022-12-15T06:29:31.762Z,3.30
2022-12-15T06:31:58.662Z,3.30
2022-12-15T06:34:25.299Z,3.30
2022-12-15T06:36:51.971Z,3.30
2022-12-15T06:39:18.703Z,3.30
2022-12-15T06:41:45.750Z,3.30
2022-12-15T06:44:14.791Z,3.40
2022-12-15T06:46:41.900Z,3.30
2022-12-15T06:49:09.049Z,3.30
2022-12-15T06:51:36.301Z,3.30
2022-12-15T06:54:02.951Z,3.30
2022-12-15T06:56:34.639Z,3.40
2022-12-15T06:59:03.266Z,3.40
2022-12-15T07:01:30.514Z,3.40
2022-12-15T07:03:59.881Z,3.40
2022-12-15T07:06:27.407Z,3.40
2022-12-15T07:08:56.351Z,3.40
2022-12-15T07:11:23.770Z,3.50
2022-12-15T07:13:52.298Z,3.40
2022-12-15T07:16:20.044Z,3.50
2022-12-15T07:18:46.972Z,3.40
2022-12-15T07:21:13.694Z,3.50
2022-12-15T07:23:54.278Z,3.50
2022-12-15T07:26:21.890Z,3.50
2022-12-15T07:28:49.285Z,3.40
2022-12-15T07:31:16.152Z,3.40
2022-12-15T07:33:43.076Z,3.40
2022-12-15T07:36:09.935Z,3.30
2022-12-15T07:38:36.687Z,3.30
2022-12-15T07:41:05.098Z,3.40
2022-12-15T07:43:32.855Z,3.30
2022-12-15T07:46:00.412Z,3.30
2022-12-15T07:48:27.903Z,3.30
2022-12-15T07:51:04.994Z,3.30
2022-12-15T07:53:35.223Z,3.30
2022-12-15T07:56:08.986Z,3.50
2022-12-15T07:58:36.941Z,3.40
2022-12-15T08:01:06.020Z,3.40
2022-12-15T08:03:33.823Z,3.40
2022-12-15T08:06:19.237Z,3.40
2022-12-15T08:08:50.360Z,3.30
2022-12-15T08:11:19.410Z,3.40
2022-12-15T08:14:03.496Z,3.30
2022-12-15T08:16:31.913Z,3.30
2022-12-15T08:18:58.843Z,3.40
2022-12-15T08:21:25.844Z,3.40
2022-12-15T08:23:52.531Z,3.40
2022-12-15T08:26:22.650Z,3.40
2022-12-15T08:28:54.048Z,3.40
2022-12-15T08:31:22.686Z,3.40
2022-12-15T08:33:50.802Z,3.40
2022-12-15T08:36:18.968Z,3.30
2022-12-15T08:38:47.475Z,3.30
2022-12-15T08:41:18.084Z,3.30
2022-12-15T08:43:49.173Z,3.30
2022-12-15T08:46:17.975Z,3.20
2022-12-15T08:48:45.258Z,3.30
2022-12-15T08:51:12.544Z,3.40
2022-12-15T08:53:39.329Z,3.40
2022-12-15T08:56:09.180Z,3.40
2022-12-15T08:58:36.271Z,3.50
2022-12-15T09:01:05.736Z,3.50
2022-12-15T09:03:34.046Z,3.60
2022-12-15T09:06:05.984Z,3.60
2022-12-15T09:08:33.626Z,3.70
2022-12-15T09:11:01.275Z,3.70
2022-12-15T09:13:29.221Z,3.60
2022-12-15T09:16:10.281Z,3.60
2022-12-15T09:18:37.850Z,3.70
2022-12-15T09:21:07.205Z,3.70
2022-12-15T09:23:35.649Z,3.70
2022-12-15T09:26:11.120Z,3.80
2022-12-15T09:28:38.447Z,3.90
2022-12-15T09:31:13.641Z,3.90
2022-12-15T09:33:41.546Z,3.90
2022-12-15T09:36:09.725Z,4.00
2022-12-15T09:38:40.927Z,3.90
2022-12-15T09:41:32.070Z,4.00
2022-12-15T09:44:16.622Z,4.00
2022-12-15T09:47:06.929Z,4.00
2022-12-15T09:49:47.539Z,4.00
2022-12-15T09:52:41.579Z,4.00
2022-12-15T09:55:37.615Z,4.10
2022-12-15T09:58:28.739Z,4.10
2022-12-15T10:01:04.435Z,4.10
2022-12-15T10:03:46.678Z,4.20
2022-12-15T10:06:33.536Z,4.20
2022-12-15T10:09:04.230Z,4.30
2022-12-15T10:11:51.093Z,4.40
2022-12-15T10:14:36.585Z,4.40
2022-12-15T10:17:24.318Z,4.40
2022-12-15T10:20:21.405Z,4.50
2022-12-15T10:22:50.282Z,4.50
2022-12-15T10:25:30.667Z,4.60
2022-12-15T10:28:06.761Z,4.60
2022-12-15T10:30:37.098Z,4.60
2022-12-15T10:33:22.978Z,4.60
2022-12-15T10:35:55.865Z,4.70
2022-12-15T10:38:40.287Z,4.70
2022-12-15T10:41:14.122Z,4.80
2022-12-15T10:43:43.859Z,4.80
2022-12-15T10:46:26.401Z,4.80
2022-12-15T10:49:13.281Z,4.90
2022-12-15T10:51:56.236Z,4.90
2022-12-15T10:54:27.047Z,4.90
2022-12-15T10:57:14.559Z,4.90
2022-12-15T10:59:41.319Z,4.90
2022-12-15T11:02:34.408Z,4.90
2022-12-15T11:05:16.545Z,4.90
2022-12-15T11:07:49.474Z,4.90
2022-12-15T11:10:26.353Z,4.90
2022-12-15T11:13:12.862Z,4.90
2022-12-15T11:15:41.360Z,4.90
2022-12-15T11:18:21.361Z,4.90
2022-12-15T11:21:12.853Z,4.90
2022-12-15T11:23:58.394Z,4.90
2022-12-15T11:27:04.330Z,4.90
2022-12-15T11:29:43.016Z,4.90
2022-12-15T11:32:12.873Z,4.90
2022-12-15T11:34:44.872Z,4.90
2022-12-15T11:37:34.326Z,4.90
2022-12-15T11:40:21.301Z,4.90
2022-12-15T11:43:10.957Z,4.90
2022-12-15T11:45:50.210Z,4.90
2022-12-15T11:48:21.597Z,4.90
2022-12-15T11:50:57.512Z,5.00
2022-12-15T11:53:38.932Z,5.00
2022-12-15T11:56:30.461Z,5.00
2022-12-15T11:59:26.293Z,5.00
2022-12-15T12:02:11.748Z,5.00
2022-12-15T12:04:55.701Z,5.00
2022-12-15T12:07:44.405Z,5.00
2022-12-15T12:10:29.596Z,5.00
2022-12-15T12:13:47.241Z,5.00
2022-12-15T12:16:35.226Z,5.00
2022-12-15T12:19:10.570Z,4.90
2022-12-15T12:21:40.726Z,5.00
2022-12-15T12:24:24.769Z,5.00
2022-12-15T12:27:17.787Z,5.00
2022-12-15T12:29:49.742Z,5.00
2022-12-15T12:32:42.477Z,5.00
2022-12-15T12:35:49.723Z,5.00
2022-12-15T12:38:20.179Z,5.00
2022-12-15T12:40:59.504Z,5.10
2022-12-15T12:43:40.411Z,5.10
2022-12-15T12:46:40.011Z,5.10
2022-12-15T12:49:18.721Z,5.10
2022-12-15T12:51:54.437Z,5.10
2022-12-15T12:54:36.031Z,5.10
2022-12-15T12:57:28.531Z,5.10
2022-12-15T13:00:03.158Z,5.10
2022-12-15T13:02:35.288Z,5.10
2022-12-15T13:05:22.395Z,5.10
2022-12-15T13:07:56.611Z,5.10
2022-12-15T13:10:25.563Z,5.10
2022-12-15T13:13:00.765Z,5.10
2022-12-15T13:15:27.382Z,5.10
2022-12-15T13:18:09.487Z,5.10
2022-12-15T13:20:37.655Z,5.10
2022-12-15T13:23:19.594Z,5.10
2022-12-15T13:25:53.857Z,5.10
2022-12-15T13:28:28.311Z,5.00
2022-12-15T13:31:13.528Z,5.00
2022-12-15T13:34:14.915Z,5.00
2022-12-15T13:36:41.534Z,5.00
2022-12-15T13:39:17.651Z,5.00
2022-12-15T13:42:07.857Z,5.00
2022-12-15T13:44:45.433Z,5.00
2022-12-15T13:47:24.125Z,5.00
2022-12-15T13:50:06.160Z,5.00
2022-12-15T13:53:16.430Z,5.00
2022-12-15T13:55:29.960Z,5.00
2022-12-15T13:58:17.645Z,5.00
2022-12-15T14:00:59.177Z,5.00
2022-12-15T14:03:26.404Z,5.00
2022-12-15T14:05:59.302Z,5.00
2022-12-15T14:08:29.629Z,5.00
2022-12-15T14:10:58.971Z,5.00
2022-12-15T14:13:30.052Z,5.00
2022-12-15T14:16:04.330Z,5.00
2022-12-15T14:18:34.389Z,5.00
2022-12-15T14:21:05.782Z,5.00
2022-12-15T14:24:28.865Z,5.00
2022-12-15T14:26:45.194Z,5.00
2022-12-15T14:29:13.073Z,5.00
2022-12-15T14:31:40.484Z,4.90
2022-12-15T14:34:23.515Z,5.00
2022-12-15T14:36:51.532Z,5.00
2022-12-15T14:39:26.061Z,4.90
2022-12-15T14:41:54.994Z,4.90
2022-12-15T14:44:38.616Z,4.90
2022-12-15T14:47:15.174Z,4.90
2022-12-15T14:49:45.689Z,4.90
2022-12-15T14:52:28.643Z,4.80
2022-12-15T14:54:58.744Z,4.80
2022-12-15T14:57:40.402Z,4.80
2022-12-15T15:00:24.894Z,4.80
2022-12-15T15:05:57.603Z,4.80
2022-12-15T15:08:36.520Z,4.80
2022-12-15T15:11:25.458Z,4.80
2022-12-15T15:14:08.842Z,4.80
2022-12-15T15:16:35.611Z,4.80
2022-12-15T15:19:04.339Z,4.80
2022-12-15T15:21:35.262Z,4.80
2022-12-15T15:24:20.353Z,4.80
2022-12-15T15:26:47.180Z,4.80
2022-12-15T15:29:41.248Z,4.90
2022-12-15T15:32:20.502Z,4.90
2022-12-15T15:34:47.520Z,4.90
2022-12-15T15:37:23.471Z,4.90
2022-12-15T15:39:52.558Z,4.80
2022-12-15T15:42:19.173Z,4.90
2022-12-15T15:44:46.395Z,4.80
2022-12-15T15:47:25.478Z,4.90
2022-12-15T15:49:58.480Z,4.80
2022-12-15T15:52:25.634Z,4.80
2022-12-15T15:54:53.507Z,4.80
2022-12-15T15:57:20.306Z,4.80
2022-12-15T15:59:47.776Z,4.90
2022-12-15T16:02:15.184Z,4.80
2022-12-15T16:04:43.664Z,4.80
2022-12-15T16:07:27.827Z,4.80
2022-12-15T16:09:55.261Z,4.80
2022-12-15T16:12:33.653Z,4.80
2022-12-15T16:15:00.798Z,4.80
2022-12-15T16:17:27.344Z,4.70
2022-12-15T16:19:53.902Z,4.80
2022-12-15T16:22:22.137Z,4.80
2022-12-15T16:24:48.858Z,4.80
2022-12-15T16:27:16.282Z,4.70
2022-12-15T16:29:43.227Z,4.70
2022-12-15T16:32:11.420Z,4.70
2022-12-15T16:34:38.402Z,4.80
2022-12-15T16:37:05.288Z,4.70
2022-12-15T16:39:33.802Z,4.70
2022-12-15T16:42:01.237Z,4.70
2022-12-15T16:44:29.446Z,4.70
2022-12-15T16:46:57.434Z,4.70
2022-12-15T16:49:24.743Z,4.70
2022-12-15T16:51:53.500Z,4.70
2022-12-15T16:54:26.417Z,4.60
2022-12-15T16:56:54.774Z,4.70
2022-12-15T16:59:33.137Z,4.60
2022-12-15T17:02:00.452Z,4.60
2022-12-15T17:04:27.145Z,4.60
2022-12-15T17:06:53.864Z,4.60
2022-12-15T17:09:23.468Z,4.70
2022-12-15T17:11:50.971Z,4.70
2022-12-15T17:14:17.733Z,4.70
2022-12-15T17:16:44.736Z,4.70
2022-12-15T17:19:14.915Z,4.60
2022-12-15T17:21:48.675Z,4.70
2022-12-15T17:24:19.970Z,4.70
2022-12-15T17:26:47.401Z,4.70
2022-12-15T17:29:21.237Z,4.80
2022-12-15T17:31:48.382Z,4.70
2022-12-15T17:34:30.176Z,4.60
2022-12-15T17:36:59.564Z,4.70
2022-12-15T17:39:27.211Z,4.70
2022-12-15T17:42:02.729Z,4.70
2022-12-15T17:44:35.700Z,4.70
2022-12-15T17:47:04.508Z,4.70
2022-12-15T17:49:35.523Z,4.70
2022-12-15T17:52:24.179Z,4.60
2022-12-15T17:54:51.862Z,4.60
2022-12-15T17:57:18.599Z,4.60
2022-12-15T17:59:45.609Z,4.60
2022-12-15T18:02:14.175Z,4.60
2022-12-15T18:04:41.736Z,4.50
2022-12-15T18:07:20.453Z,4.60
2022-12-15T18:09:47.782Z,4.60
2022-12-15T18:12:20.327Z,4.60
2022-12-15T18:14:47.709Z,4.60
2022-12-15T18:17:14.781Z,4.60
2022-12-15T18:19:41.427Z,4.60
2022-12-15T18:22:24.609Z,4.60
2022-12-15T18:24:52.905Z,4.70
2022-12-15T18:27:26.175Z,4.60
2022-12-15T18:29:53.163Z,4.60
2022-12-15T18:32:22.205Z,4.80
2022-12-15T18:34:48.853Z,4.80
2022-12-15T18:37:18.721Z,4.80
2022-12-15T18:39:46.061Z,4.80
2022-12-15T18:42:16.567Z,4.80
2022-12-15T18:44:48.681Z,4.70
2022-12-15T18:47:21.453Z,4.70
2022-12-15T18:49:48.281Z,4.70
2022-12-15T18:52:20.585Z,4.70
2022-12-15T18:54:49.237Z,4.70
2022-12-15T18:57:30.431Z,4.60
2022-12-15T19:00:15.632Z,4.60
2022-12-15T19:02:42.889Z,4.60
2022-12-15T19:05:27.856Z,4.70
2022-12-15T19:08:27.003Z,4.60
2022-12-15T19:10:59.860Z,4.60
2022-12-15T19:13:34.683Z,4.50
2022-12-15T19:16:04.138Z,4.60
2022-12-15T19:18:49.670Z,4.50
2022-12-15T19:21:44.568Z,4.50
2022-12-15T19:24:45.090Z,4.60
2022-12-15T19:27:13.224Z,4.60
2022-12-15T19:29:40.807Z,4.60
2022-12-15T19:32:08.314Z,4.60
2022-12-15T19:34:35.357Z,4.60
2022-12-15T19:37:03.870Z,4.60
2022-12-15T19:39:33.218Z,4.60
2022-12-15T19:42:00.034Z,4.60
2022-12-15T19:44:27.322Z,4.70
2022-12-15T19:46:54.066Z,4.60
2022-12-15T19:49:20.751Z,4.70
2022-12-15T19:51:47.596Z,4.70
2022-12-15T19:54:21.303Z,4.70
2022-12-15T19:56:48.468Z,4.70
2022-12-15T19:59:28.153Z,4.70
2022-12-15T20:01:54.941Z,4.70
2022-12-15T20:04:24.221Z,4.70
2022-12-15T20:06:51.364Z,4.70
2022-12-15T20:09:19.068Z,4.60
2022-12-15T20:11:46.105Z,4.60
2022-12-15T20:14:14.680Z,4.60
2022-12-15T20:16:41.357Z,4.60
2022-12-15T20:19:08.080Z,4.50
2022-12-15T20:21:37.312Z,4.50
2022-12-15T20:24:13.825Z,4.50
2022-12-15T20:26:41.510Z,4.50
2022-12-15T20:29:20.401Z,4.50
2022-12-15T20:31:47.015Z,4.60
2022-12-15T20:34:13.628Z,4.50
2022-12-15T20:36:40.381Z,4.50
2022-12-15T20:39:25.847Z,4.50
2022-12-15T20:41:53.507Z,4.50
2022-12-15T20:44:20.671Z,4.50
2022-12-15T20:46:47.485Z,4.50
2022-12-15T20:49:18.454Z,4.40
2022-12-15T20:51:46.894Z,4.40
2022-12-15T20:54:17.267Z,4.40
2022-12-15T20:56:44.250Z,4.40
2022-12-15T20:59:11.564Z,4.40
2022-12-15T21:01:39.456Z,4.40
2022-12-15T21:04:32.674Z,4.40
2022-12-15T21:06:59.729Z,4.40
2022-12-15T21:09:26.347Z,4.30
2022-12-15T21:11:54.875Z,4.40
2022-12-15T21:14:23.215Z,4.30
2022-12-15T21:16:49.922Z,4.30
2022-12-15T21:19:21.801Z,4.30
2022-12-15T21:21:52.077Z,4.30
2022-12-15T21:24:24.558Z,4.30
2022-12-15T21:26:52.100Z,4.30
2022-12-15T21:29:24.217Z,4.30
2022-12-15T21:31:50.919Z,4.30
2022-12-15T21:34:17.765Z,4.30
2022-12-15T21:36:47.193Z,4.30
2022-12-15T21:39:24.999Z,4.30
2022-12-15T21:41:51.941Z,4.30
2022-12-15T21:44:18.591Z,4.20
2022-12-15T21:46:45.364Z,4.20
2022-12-15T21:49:20.399Z,4.20
2022-12-15T21:52:00.799Z,4.20
2022-12-15T21:54:31.796Z,4.20
2022-12-15T21:57:02.656Z,4.20
2022-12-15T21:59:31.426Z,4.10
2022-12-15T22:02:00.243Z,4.10
2022-12-15T22:04:31.549Z,4.10
2022-12-15T22:06:58.131Z,4.10
2022-12-15T22:09:24.866Z,4.10
2022-12-15T22:11:53.917Z,4.00
2022-12-15T22:14:25.123Z,4.00
2022-12-15T22:16:52.311Z,4.00
2022-12-15T22:19:19.344Z,4.00
2022-12-15T22:21:45.913Z,4.10
2022-12-15T22:24:12.659Z,4.00
2022-12-15T22:26:40.014Z,4.10
2022-12-15T22:29:18.139Z,4.00
2022-12-15T22:31:44.853Z,4.00
2022-12-15T22:34:22.161Z,4.10
2022-12-15T22:36:50.336Z,4.00
2022-12-15T22:39:18.679Z,4.00
2022-12-15T22:41:47.926Z,4.00
2022-12-15T22:44:19.723Z,4.10
2022-12-15T22:46:48.072Z,4.00
2022-12-15T22:49:30.022Z,4.10
2022-12-15T22:51:56.774Z,4.00
2022-12-15T22:54:25.807Z,4.10
2022-12-15T22:56:58.247Z,4.10
2022-12-15T22:59:32.551Z,4.10
2022-12-15T23:02:02.355Z,4.10
2022-12-15T23:04:30.587Z,4.00
2022-12-15T23:06:58.981Z,4.10
2022-12-15T23:09:25.637Z,4.10
2022-12-15T23:11:52.217Z,4.10
2022-12-15T23:14:39.195Z,4.10
2022-12-15T23:17:06.157Z,4.00
2022-12-15T23:19:32.779Z,4.00
2022-12-15T23:21:59.362Z,4.00
2022-12-15T23:24:26.746Z,4.10
2022-12-15T23:26:53.529Z,4.10
2022-12-15T23:29:20.305Z,4.10
2022-12-15T23:31:47.461Z,4.10
2022-12-15T23:34:14.409Z,4.10
2022-12-15T23:36:41.063Z,4.00
2022-12-15T23:39:07.645Z,4.10
2022-12-15T23:41:35.243Z,4.10
2022-12-15T23:44:01.814Z,4.10
2022-12-15T23:46:28.405Z,4.10
2022-12-15T23:48:55.127Z,4.00
2022-12-15T23:51:21.731Z,4.00
2022-12-15T23:53:48.554Z,4.00
2022-12-15T23:56:18.730Z,4.00
2022-12-15T23:58:47.052Z,4.00
